createdAt,value
2017-06-29T00:00:57.323Z,0
2017-06-29T00:01:57.318Z,0
2017-06-29T00:02:57.317Z,0
2017-06-29T00:03:57.315Z,0
2017-06-29T00:04:57.312Z,0
2017-06-29T00:05:57.304Z,0
2017-06-29T00:06:57.002Z,0
2017-06-29T00:07:57.300Z,0
2017-06-29T00:08:57.299Z,0
2017-06-29T00:09:57.305Z,0
2017-06-29T00:10:57.296Z,0
2017-06-29T00:11:57.292Z,0
2017-06-29T00:12:57.292Z,0
2017-06-29T00:13:57.293Z,0
2017-06-29T00:14:57.292Z,0
2017-06-29T00:15:57.280Z,0
2017-06-29T00:16:56.974Z,0
2017-06-29T00:17:57.293Z,0
2017-06-29T00:18:57.275Z,0
2017-06-29T00:19:57.272Z,0
2017-06-29T00:20:57.272Z,0
2017-06-29T00:21:57.273Z,0
2017-06-29T00:22:57.264Z,0
2017-06-29T00:23:57.260Z,0
2017-06-29T00:24:57.258Z,0
2017-06-29T00:25:57.251Z,0
2017-06-29T00:26:57.252Z,0
2017-06-29T00:27:57.268Z,0
2017-06-29T00:28:57.252Z,0
2017-06-29T00:29:57.256Z,0
2017-06-29T00:30:57.244Z,0
2017-06-29T00:31:56.634Z,0
2017-06-29T00:32:57.242Z,0
2017-06-29T00:33:57.235Z,0
2017-06-29T00:34:57.246Z,0
2017-06-29T00:35:57.239Z,0
2017-06-29T00:36:57.227Z,0
2017-06-29T00:37:56.929Z,0
2017-06-29T00:38:57.227Z,0
2017-06-29T00:39:56.617Z,0
2017-06-29T00:40:57.219Z,0
2017-06-29T00:41:57.217Z,0
2017-06-29T00:42:57.218Z,0
2017-06-29T00:43:57.213Z,0
2017-06-29T00:44:57.528Z,0
2017-06-29T00:45:57.205Z,0
2017-06-29T00:46:57.203Z,0
2017-06-29T00:47:57.209Z,0
2017-06-29T00:48:57.203Z,0
2017-06-29T00:49:57.207Z,0
2017-06-29T00:50:56.894Z,0
2017-06-29T00:51:57.189Z,0
2017-06-29T00:52:57.193Z,0
2017-06-29T00:53:56.889Z,0
2017-06-29T00:54:57.202Z,0
2017-06-29T00:55:57.184Z,0
2017-06-29T00:56:57.181Z,0
2017-06-29T00:57:57.181Z,0
2017-06-29T00:58:57.175Z,0
2017-06-29T00:59:57.175Z,0
2017-06-29T01:00:57.178Z,0
2017-06-29T01:01:57.166Z,0
2017-06-29T01:02:57.172Z,0
2017-06-29T01:03:57.168Z,0
2017-06-29T01:04:57.161Z,0
2017-06-29T01:05:57.155Z,0
2017-06-29T01:06:56.855Z,0
2017-06-29T01:07:57.158Z,0
2017-06-29T01:08:57.153Z,0
2017-06-29T01:09:57.152Z,0
2017-06-29T01:10:57.145Z,0
2017-06-29T01:11:57.144Z,0
2017-06-29T01:12:57.145Z,0
2017-06-29T01:13:57.145Z,0
2017-06-29T01:14:57.147Z,0
2017-06-29T01:15:57.135Z,0
2017-06-29T01:16:57.129Z,0
2017-06-29T01:17:57.136Z,0
2017-06-29T01:18:57.134Z,0
2017-06-29T01:19:57.126Z,0
2017-06-29T01:20:57.123Z,0
2017-06-29T01:21:57.157Z,0
2017-06-29T01:22:57.112Z,0
2017-06-29T01:23:57.126Z,0
2017-06-29T01:24:57.116Z,0
2017-06-29T01:25:57.113Z,0
2017-06-29T01:26:56.804Z,0
2017-06-29T01:27:57.103Z,0
2017-06-29T01:28:57.101Z,0
2017-06-29T01:29:57.102Z,0
2017-06-29T01:30:57.094Z,0
2017-06-29T01:31:57.091Z,0
2017-06-29T01:32:57.089Z,0
2017-06-29T01:33:57.086Z,0
2017-06-29T01:34:57.086Z,0
2017-06-29T01:35:57.083Z,0
2017-06-29T01:36:57.081Z,0
2017-06-29T01:37:57.091Z,0
2017-06-29T01:38:57.078Z,0
2017-06-29T01:39:57.080Z,0
2017-06-29T01:40:56.466Z,0
2017-06-29T01:41:57.067Z,0
2017-06-29T01:42:57.082Z,0
2017-06-29T01:43:57.066Z,0
2017-06-29T01:44:57.058Z,0
2017-06-29T01:45:57.059Z,0
2017-06-29T01:46:57.058Z,0
2017-06-29T01:47:57.058Z,0
2017-06-29T01:48:56.748Z,0
2017-06-29T01:49:57.046Z,0
2017-06-29T01:50:57.051Z,0
2017-06-29T01:51:57.044Z,0
2017-06-29T01:52:57.042Z,0
2017-06-29T01:53:56.741Z,0
2017-06-29T01:54:56.433Z,0
2017-06-29T01:55:57.032Z,0
2017-06-29T01:56:57.032Z,0
2017-06-29T01:57:57.035Z,4
2017-06-29T01:58:57.029Z,4
2017-06-29T01:59:57.023Z,4
2017-06-29T02:00:57.029Z,4
2017-06-29T02:01:56.716Z,4
2017-06-29T02:02:56.716Z,4
2017-06-29T02:03:57.016Z,4
2017-06-29T02:04:57.012Z,4
2017-06-29T02:05:57.008Z,8
2017-06-29T02:06:57.003Z,4
2017-06-29T02:07:56.999Z,4
2017-06-29T02:08:57.001Z,8
2017-06-29T02:09:57.003Z,8
2017-06-29T02:10:56.997Z,8
2017-06-29T02:11:56.986Z,8
2017-06-29T02:12:56.988Z,12
2017-06-29T02:13:56.991Z,12
2017-06-29T02:14:56.978Z,16
2017-06-29T02:15:56.975Z,16
2017-06-29T02:16:56.978Z,20
2017-06-29T02:17:56.665Z,20
2017-06-29T02:18:56.973Z,24
2017-06-29T02:19:56.967Z,24
2017-06-29T02:20:56.968Z,32
2017-06-29T02:21:56.960Z,32
2017-06-29T02:22:56.961Z,40
2017-06-29T02:23:56.962Z,40
2017-06-29T02:24:56.952Z,44
2017-06-29T02:25:56.948Z,48
2017-06-29T02:26:56.944Z,56
2017-06-29T02:27:56.943Z,60
2017-06-29T02:28:56.635Z,68
2017-06-29T02:29:56.936Z,72
2017-06-29T02:30:56.934Z,80
2017-06-29T02:31:56.932Z,84
2017-06-29T02:32:56.930Z,92
2017-06-29T02:33:56.924Z,104
2017-06-29T02:34:56.924Z,116
2017-06-29T02:35:56.917Z,124
2017-06-29T02:36:56.611Z,136
2017-06-29T02:37:56.907Z,144
2017-06-29T02:38:56.906Z,156
2017-06-29T02:39:56.910Z,164
2017-06-29T02:40:56.902Z,180
2017-06-29T02:41:56.899Z,196
2017-06-29T02:42:56.898Z,212
2017-06-29T02:43:56.891Z,200
2017-06-29T02:44:56.886Z,216
2017-06-29T02:45:56.880Z,228
2017-06-29T02:46:56.881Z,248
2017-06-29T02:47:56.883Z,260
2017-06-29T02:48:56.879Z,264
2017-06-29T02:49:56.872Z,276
2017-06-29T02:50:56.867Z,292
2017-06-29T02:51:56.872Z,312
2017-06-29T02:52:56.866Z,324
2017-06-29T02:53:56.866Z,348
2017-06-29T02:54:56.858Z,384
2017-06-29T02:55:56.851Z,408
2017-06-29T02:56:56.848Z,424
2017-06-29T02:57:56.843Z,456
2017-06-29T02:58:56.842Z,484
2017-06-29T02:59:56.840Z,524
2017-06-29T03:00:56.835Z,572
2017-06-29T03:01:56.836Z,616
2017-06-29T03:02:56.843Z,656
2017-06-29T03:03:56.829Z,668
2017-06-29T03:04:56.827Z,696
2017-06-29T03:05:56.817Z,732
2017-06-29T03:06:56.817Z,772
2017-06-29T03:07:56.818Z,836
2017-06-29T03:08:56.815Z,912
2017-06-29T03:09:56.813Z,1012
2017-06-29T03:10:56.807Z,1084
2017-06-29T03:11:56.799Z,1156
2017-06-29T03:12:56.801Z,1220
2017-06-29T03:13:56.799Z,1300
2017-06-29T03:14:56.795Z,1360
2017-06-29T03:15:56.786Z,1440
2017-06-29T03:16:56.786Z,1516
2017-06-29T03:17:56.786Z,1584
2017-06-29T03:18:56.792Z,1636
2017-06-29T03:19:56.785Z,1764
2017-06-29T03:20:56.779Z,1872
2017-06-29T03:21:56.773Z,2012
2017-06-29T03:22:56.765Z,2120
2017-06-29T03:23:56.768Z,2180
2017-06-29T03:24:56.762Z,2196
2017-06-29T03:25:56.758Z,2160
2017-06-29T03:26:56.760Z,2152
2017-06-29T03:27:56.759Z,2092
2017-06-29T03:28:56.487Z,1976
2017-06-29T03:29:56.758Z,1784
2017-06-29T03:30:56.748Z,1564
2017-06-29T03:31:56.746Z,1380
2017-06-29T03:32:56.747Z,1288
2017-06-29T03:33:56.742Z,1260
2017-06-29T03:34:56.739Z,1412
2017-06-29T03:35:56.733Z,1632
2017-06-29T03:36:56.733Z,1888
2017-06-29T03:37:56.732Z,2100
2017-06-29T03:38:56.731Z,2132
2017-06-29T03:39:56.724Z,2164
2017-06-29T03:40:56.719Z,2128
2017-06-29T03:41:56.722Z,2104
2017-06-29T03:42:56.719Z,2068
2017-06-29T03:43:56.714Z,2104
2017-06-29T03:44:56.712Z,2212
2017-06-29T03:45:56.404Z,2324
2017-06-29T03:46:56.708Z,2540
2017-06-29T03:47:56.707Z,2600
2017-06-29T03:48:56.708Z,2616
2017-06-29T03:49:56.699Z,2612
2017-06-29T03:50:56.699Z,2680
2017-06-29T03:51:56.693Z,2856
2017-06-29T03:52:56.693Z,3020
2017-06-29T03:53:56.685Z,3020
2017-06-29T03:54:56.682Z,3036
2017-06-29T03:55:56.686Z,2928
2017-06-29T03:56:56.679Z,2684
2017-06-29T03:57:56.676Z,2524
2017-06-29T03:58:56.679Z,2424
2017-06-29T03:59:56.678Z,2440
2017-06-29T04:00:56.675Z,2496
2017-06-29T04:01:56.678Z,2520
2017-06-29T04:02:56.675Z,2540
2017-06-29T04:03:56.668Z,2488
2017-06-29T04:04:56.663Z,2364
2017-06-29T04:05:56.658Z,2328
2017-06-29T04:06:56.662Z,2316
2017-06-29T04:07:56.659Z,2340
2017-06-29T04:08:56.656Z,2388
2017-06-29T04:09:56.655Z,2420
2017-06-29T04:10:56.650Z,2456
2017-06-29T04:11:56.646Z,2656
2017-06-29T04:12:56.646Z,2720
2017-06-29T04:13:56.641Z,2648
2017-06-29T04:14:56.645Z,2720
2017-06-29T04:15:56.336Z,2924
2017-06-29T04:16:56.631Z,3160
2017-06-29T04:17:56.635Z,3152
2017-06-29T04:18:56.630Z,3224
2017-06-29T04:19:56.626Z,3236
2017-06-29T04:20:56.624Z,3312
2017-06-29T04:21:56.624Z,3332
2017-06-29T04:22:56.620Z,3312
2017-06-29T04:23:56.620Z,3392
2017-06-29T04:24:56.622Z,3416
2017-06-29T04:25:56.618Z,3516
2017-06-29T04:26:56.618Z,3656
2017-06-29T04:27:56.614Z,3724
2017-06-29T04:28:56.614Z,3724
2017-06-29T04:29:56.648Z,3620
2017-06-29T04:30:56.607Z,3392
2017-06-29T04:31:56.606Z,3392
2017-06-29T04:32:56.607Z,3256
2017-06-29T04:33:56.600Z,3268
2017-06-29T04:34:56.599Z,3216
2017-06-29T04:35:56.601Z,3332
2017-06-29T04:36:56.592Z,3652
2017-06-29T04:37:56.595Z,3900
2017-06-29T04:38:56.284Z,4300
2017-06-29T04:39:56.589Z,4636
2017-06-29T04:40:56.833Z,4868
2017-06-29T04:41:56.581Z,4924
2017-06-29T04:42:56.580Z,4812
2017-06-29T04:43:56.583Z,5088
2017-06-29T04:44:56.571Z,4972
2017-06-29T04:45:56.571Z,4892
2017-06-29T04:46:56.576Z,4892
2017-06-29T04:47:56.568Z,4828
2017-06-29T04:48:56.262Z,5188
2017-06-29T04:49:56.558Z,5312
2017-06-29T04:50:56.564Z,5540
2017-06-29T04:51:56.565Z,5044
2017-06-29T04:52:56.560Z,4832
2017-06-29T04:53:56.560Z,5328
2017-06-29T04:54:56.555Z,5608
2017-06-29T04:55:56.550Z,5480
2017-06-29T04:56:56.551Z,6152
2017-06-29T04:57:56.555Z,4908
2017-06-29T04:58:56.554Z,4852
2017-06-29T04:59:56.548Z,5428
2017-06-29T05:00:56.241Z,6000
2017-06-29T05:01:56.540Z,6084
2017-06-29T05:02:56.540Z,7368
2017-06-29T05:03:56.544Z,7232
2017-06-29T05:04:56.535Z,6972
2017-06-29T05:05:56.533Z,7620
2017-06-29T05:06:56.534Z,8596
2017-06-29T05:07:56.542Z,8500
2017-06-29T05:08:56.533Z,7948
2017-06-29T05:09:56.529Z,7308
2017-06-29T05:10:56.531Z,6796
2017-06-29T05:11:56.533Z,6556
2017-06-29T05:12:56.526Z,6440
2017-06-29T05:13:56.525Z,6312
2017-06-29T05:14:56.568Z,6668
2017-06-29T05:15:56.518Z,6608
2017-06-29T05:16:56.521Z,7364
2017-06-29T05:17:56.521Z,8436
2017-06-29T05:18:56.515Z,8612
2017-06-29T05:19:56.516Z,8988
2017-06-29T05:20:56.518Z,8944
2017-06-29T05:21:56.209Z,7944
2017-06-29T05:22:56.530Z,7408
2017-06-29T05:23:56.510Z,7908
2017-06-29T05:24:56.511Z,8164
2017-06-29T05:25:56.515Z,9036
2017-06-29T05:26:56.508Z,9644
2017-06-29T05:27:56.199Z,9472
2017-06-29T05:28:56.208Z,8856
2017-06-29T05:29:56.204Z,8720
2017-06-29T05:30:56.501Z,9956
2017-06-29T05:31:56.503Z,10180
2017-06-29T05:32:56.194Z,10132
2017-06-29T05:33:56.501Z,9728
2017-06-29T05:34:55.891Z,9712
2017-06-29T05:35:56.495Z,9876
2017-06-29T05:36:56.501Z,9576
2017-06-29T05:37:56.497Z,11852
2017-06-29T05:38:56.495Z,12320
2017-06-29T05:39:56.206Z,11444
2017-06-29T05:40:56.496Z,8884
2017-06-29T05:41:56.500Z,7600
2017-06-29T05:42:56.498Z,8644
2017-06-29T05:43:56.490Z,6916
2017-06-29T05:44:56.487Z,7528
2017-06-29T05:45:56.488Z,8000
2017-06-29T05:46:56.486Z,8764
2017-06-29T05:47:56.490Z,12008
2017-06-29T05:48:56.489Z,15808
2017-06-29T05:49:56.190Z,14016
2017-06-29T05:50:56.496Z,13476
2017-06-29T05:51:56.189Z,13056
2017-06-29T05:52:55.894Z,13980
2017-06-29T05:53:56.203Z,10016
2017-06-29T05:54:56.486Z,8368
2017-06-29T05:55:56.489Z,11268
2017-06-29T05:56:56.487Z,11808
2017-06-29T05:57:56.489Z,8232
2017-06-29T05:58:56.489Z,8552
2017-06-29T05:59:56.489Z,8092
2017-06-29T06:00:56.489Z,7676
2017-06-29T06:01:56.493Z,9352
2017-06-29T06:02:56.236Z,8324
2017-06-29T06:03:56.187Z,7256
2017-06-29T06:04:56.496Z,6660
2017-06-29T06:05:56.491Z,7160
2017-06-29T06:06:56.189Z,5832
2017-06-29T06:07:56.497Z,6132
2017-06-29T06:08:56.497Z,5004
2017-06-29T06:09:56.493Z,3992
2017-06-29T06:10:56.494Z,3648
2017-06-29T06:11:56.494Z,3880
2017-06-29T06:12:56.496Z,4032
2017-06-29T06:13:56.499Z,4724
2017-06-29T06:14:56.197Z,5460
2017-06-29T06:15:56.194Z,5396
2017-06-29T06:16:56.500Z,6368
2017-06-29T06:17:56.510Z,7460
2017-06-29T06:18:56.497Z,7916
2017-06-29T06:19:56.492Z,8280
2017-06-29T06:20:56.496Z,11296
2017-06-29T06:21:56.197Z,12696
2017-06-29T06:22:56.497Z,15568
2017-06-29T06:23:56.505Z,16768
2017-06-29T06:24:56.496Z,13776
2017-06-29T06:25:56.500Z,15276
2017-06-29T06:26:56.193Z,15968
2017-06-29T06:27:56.494Z,15300
2017-06-29T06:28:56.193Z,16896
2017-06-29T06:29:56.545Z,14392
2017-06-29T06:30:56.496Z,14208
2017-06-29T06:31:56.502Z,15396
2017-06-29T06:32:56.502Z,15660
2017-06-29T06:33:56.504Z,18976
2017-06-29T06:34:56.498Z,19200
2017-06-29T06:35:56.496Z,25952
2017-06-29T06:36:56.503Z,26144
2017-06-29T06:37:56.506Z,25920
2017-06-29T06:38:56.534Z,23296
2017-06-29T06:39:56.503Z,21056
2017-06-29T06:40:56.513Z,18816
2017-06-29T06:41:56.506Z,18976
2017-06-29T06:42:56.509Z,18016
2017-06-29T06:43:56.512Z,19072
2017-06-29T06:44:56.512Z,20448
2017-06-29T06:45:56.517Z,18528
2017-06-29T06:46:56.212Z,14332
2017-06-29T06:47:56.520Z,10648
2017-06-29T06:48:56.537Z,9340
2017-06-29T06:49:56.523Z,5952
2017-06-29T06:50:56.526Z,5864
2017-06-29T06:51:56.532Z,5696
2017-06-29T06:52:56.537Z,4816
2017-06-29T06:53:56.235Z,6104
2017-06-29T06:54:56.534Z,6176
2017-06-29T06:55:56.538Z,6744
2017-06-29T06:56:56.538Z,6608
2017-06-29T06:57:56.538Z,6996
2017-06-29T06:58:56.544Z,6484
2017-06-29T06:59:55.944Z,6848
2017-06-29T07:00:56.246Z,7552
2017-06-29T07:01:56.549Z,9424
2017-06-29T07:02:56.555Z,10016
2017-06-29T07:03:56.552Z,11880
2017-06-29T07:04:56.554Z,12756
2017-06-29T07:05:56.554Z,13420
2017-06-29T07:06:56.248Z,13768
2017-06-29T07:07:56.560Z,14520
2017-06-29T07:08:56.554Z,14764
2017-06-29T07:09:56.556Z,14984
2017-06-29T07:10:56.557Z,14728
2017-06-29T07:11:56.558Z,14048
2017-06-29T07:12:56.559Z,14636
2017-06-29T07:13:56.568Z,16384
2017-06-29T07:14:56.560Z,17024
2017-06-29T07:15:56.562Z,19456
2017-06-29T07:16:56.566Z,21952
2017-06-29T07:17:56.576Z,23168
2017-06-29T07:18:56.567Z,25312
2017-06-29T07:19:56.570Z,27104
2017-06-29T07:20:56.268Z,24096
2017-06-29T07:21:56.271Z,21952
2017-06-29T07:22:56.575Z,20192
2017-06-29T07:23:55.966Z,19232
2017-06-29T07:24:56.581Z,18624
2017-06-29T07:25:56.280Z,18848
2017-06-29T07:26:56.279Z,21216
2017-06-29T07:27:56.590Z,23584
2017-06-29T07:28:56.286Z,26656
2017-06-29T07:29:56.314Z,33344
2017-06-29T07:30:56.591Z,31264
2017-06-29T07:31:56.597Z,24736
2017-06-29T07:32:56.602Z,20608
2017-06-29T07:33:56.610Z,17344
2017-06-29T07:34:56.305Z,14348
2017-06-29T07:35:56.607Z,12364
2017-06-29T07:36:56.324Z,13724
2017-06-29T07:37:56.310Z,14396
2017-06-29T07:38:56.616Z,13844
2017-06-29T07:39:56.622Z,15528
2017-06-29T07:40:56.627Z,14080
2017-06-29T07:41:56.631Z,12368
2017-06-29T07:42:56.333Z,11560
2017-06-29T07:43:56.332Z,9784
2017-06-29T07:44:56.644Z,9140
2017-06-29T07:45:56.641Z,10356
2017-06-29T07:46:56.646Z,10824
2017-06-29T07:47:56.655Z,9480
2017-06-29T07:48:56.651Z,8512
2017-06-29T07:49:56.655Z,7784
2017-06-29T07:50:56.657Z,7700
2017-06-29T07:51:56.658Z,7124
2017-06-29T07:52:56.665Z,5948
2017-06-29T07:53:56.664Z,6384
2017-06-29T07:54:56.668Z,5384
2017-06-29T07:55:56.669Z,4396
2017-06-29T07:56:56.677Z,3228
2017-06-29T07:57:56.682Z,2744
2017-06-29T07:58:56.373Z,3132
2017-06-29T07:59:56.722Z,3192
2017-06-29T08:00:56.679Z,3008
2017-06-29T08:01:56.684Z,3480
2017-06-29T08:02:56.683Z,3840
2017-06-29T08:03:56.684Z,4748
2017-06-29T08:04:56.082Z,6196
2017-06-29T08:05:56.691Z,7332
2017-06-29T08:06:56.699Z,6648
2017-06-29T08:07:56.705Z,6320
2017-06-29T08:08:56.701Z,6412
2017-06-29T08:09:56.697Z,6612
2017-06-29T08:10:56.699Z,5276
2017-06-29T08:11:56.396Z,4940
2017-06-29T08:12:56.696Z,4528
2017-06-29T08:13:56.707Z,4300
2017-06-29T08:14:56.703Z,3924
2017-06-29T08:15:56.401Z,4036
2017-06-29T08:16:56.404Z,4264
2017-06-29T08:17:56.709Z,3980
2017-06-29T08:18:56.710Z,3988
2017-06-29T08:19:56.710Z,4364
2017-06-29T08:20:56.706Z,4872
2017-06-29T08:21:56.714Z,4752
2017-06-29T08:22:56.710Z,4428
2017-06-29T08:23:56.708Z,4504
2017-06-29T08:24:56.708Z,4492
2017-06-29T08:25:56.419Z,4204
2017-06-29T08:26:56.712Z,4264
2017-06-29T08:27:56.417Z,4284
2017-06-29T08:28:56.712Z,3816
2017-06-29T08:29:56.714Z,3456
2017-06-29T08:30:56.716Z,3644
2017-06-29T08:31:56.715Z,3444
2017-06-29T08:32:56.725Z,3188
2017-06-29T08:33:56.716Z,3528
2017-06-29T08:34:56.720Z,3476
2017-06-29T08:35:56.720Z,3400
2017-06-29T08:36:56.764Z,2748
2017-06-29T08:37:56.416Z,2388
2017-06-29T08:38:56.421Z,2660
2017-06-29T08:39:56.717Z,3148
2017-06-29T08:40:56.416Z,3444
2017-06-29T08:41:56.413Z,3516
2017-06-29T08:42:56.718Z,3576
2017-06-29T08:43:56.420Z,3768
2017-06-29T08:44:56.720Z,3412
2017-06-29T08:45:56.727Z,3320
2017-06-29T08:46:56.727Z,3412
2017-06-29T08:47:56.724Z,3320
2017-06-29T08:48:56.719Z,3220
2017-06-29T08:49:56.119Z,3352
2017-06-29T08:50:56.426Z,3628
2017-06-29T08:51:56.724Z,3676
2017-06-29T08:52:56.425Z,3412
2017-06-29T08:53:56.722Z,3328
2017-06-29T08:54:56.725Z,3284
2017-06-29T08:55:56.433Z,3172
2017-06-29T08:56:56.730Z,2908
2017-06-29T08:57:56.727Z,2524
2017-06-29T08:58:56.429Z,2132
2017-06-29T08:59:56.725Z,1848
2017-06-29T09:00:56.429Z,1668
2017-06-29T09:01:56.723Z,1484
2017-06-29T09:02:56.730Z,1468
2017-06-29T09:03:56.733Z,1280
2017-06-29T09:04:56.429Z,1228
2017-06-29T09:05:56.736Z,924
2017-06-29T09:06:56.734Z,776
2017-06-29T09:07:56.430Z,536
2017-06-29T09:08:56.427Z,408
2017-06-29T09:09:56.425Z,440
2017-06-29T09:10:56.125Z,416
2017-06-29T09:11:56.430Z,416
2017-06-29T09:12:56.425Z,304
2017-06-29T09:13:56.427Z,304
2017-06-29T09:14:56.729Z,368
2017-06-29T09:15:56.744Z,576
2017-06-29T09:16:56.124Z,1004
2017-06-29T09:17:56.746Z,1236
2017-06-29T09:18:56.426Z,1324
2017-06-29T09:19:56.725Z,1028
2017-06-29T09:20:56.429Z,936
2017-06-29T09:21:56.734Z,1152
2017-06-29T09:22:56.424Z,1408
2017-06-29T09:23:56.730Z,1396
2017-06-29T09:24:56.729Z,1232
2017-06-29T09:25:56.426Z,1188
2017-06-29T09:26:56.422Z,1344
2017-06-29T09:27:56.115Z,1648
2017-06-29T09:28:56.117Z,1768
2017-06-29T09:29:56.421Z,2080
2017-06-29T09:30:56.420Z,2132
2017-06-29T09:31:56.425Z,2036
2017-06-29T09:32:56.422Z,1904
2017-06-29T09:33:56.420Z,1896
2017-06-29T09:34:56.425Z,1876
2017-06-29T09:35:56.717Z,1764
2017-06-29T09:36:56.721Z,1584
2017-06-29T09:37:56.731Z,1484
2017-06-29T09:38:56.720Z,1352
2017-06-29T09:39:56.721Z,1236
2017-06-29T09:40:56.714Z,1112
2017-06-29T09:41:56.709Z,1108
2017-06-29T09:42:56.404Z,1088
2017-06-29T09:43:56.710Z,1148
2017-06-29T09:44:56.705Z,1348
2017-06-29T09:45:56.955Z,1548
2017-06-29T09:46:56.700Z,1480
2017-06-29T09:47:56.700Z,1336
2017-06-29T09:48:56.394Z,1188
2017-06-29T09:49:56.393Z,1220
2017-06-29T09:50:56.696Z,1300
2017-06-29T09:51:56.700Z,1144
2017-06-29T09:52:56.388Z,1000
2017-06-29T09:53:56.387Z,864
2017-06-29T09:54:56.685Z,932
2017-06-29T09:55:56.381Z,952
2017-06-29T09:56:56.681Z,876
2017-06-29T09:57:56.379Z,772
2017-06-29T09:58:56.377Z,764
2017-06-29T09:59:56.677Z,724
2017-06-29T10:00:56.682Z,652
2017-06-29T10:01:56.678Z,540
2017-06-29T10:02:56.672Z,372
2017-06-29T10:03:56.676Z,280
2017-06-29T10:04:56.664Z,304
2017-06-29T10:05:56.668Z,548
2017-06-29T10:06:56.659Z,1048
2017-06-29T10:07:56.658Z,1668
2017-06-29T10:08:56.658Z,2256
2017-06-29T10:09:56.654Z,2212
2017-06-29T10:10:56.350Z,2156
2017-06-29T10:11:56.348Z,1876
2017-06-29T10:12:56.344Z,1512
2017-06-29T10:13:56.344Z,1332
2017-06-29T10:14:56.643Z,1332
2017-06-29T10:15:56.643Z,1560
2017-06-29T10:16:56.642Z,1584
2017-06-29T10:17:56.634Z,1724
2017-06-29T10:18:56.636Z,1412
2017-06-29T10:19:56.638Z,1500
2017-06-29T10:20:56.631Z,1916
2017-06-29T10:21:56.633Z,1736
2017-06-29T10:22:56.626Z,1432
2017-06-29T10:23:56.320Z,1428
2017-06-29T10:24:56.623Z,1664
2017-06-29T10:25:56.623Z,2388
2017-06-29T10:26:56.315Z,2000
2017-06-29T10:27:56.620Z,2292
2017-06-29T10:28:56.007Z,1792
2017-06-29T10:29:56.003Z,1600
2017-06-29T10:30:56.607Z,2192
2017-06-29T10:31:56.305Z,1776
2017-06-29T10:32:55.995Z,920
2017-06-29T10:33:56.297Z,824
2017-06-29T10:34:56.597Z,644
2017-06-29T10:35:56.604Z,700
2017-06-29T10:36:56.289Z,716
2017-06-29T10:37:56.287Z,716
2017-06-29T10:38:56.590Z,804
2017-06-29T10:39:56.285Z,648
2017-06-29T10:40:56.439Z,668
2017-06-29T10:41:56.283Z,916
2017-06-29T10:42:56.297Z,832
2017-06-29T10:43:56.296Z,788
2017-06-29T10:44:56.588Z,844
2017-06-29T10:45:56.613Z,784
2017-06-29T10:46:55.989Z,1104
2017-06-29T10:47:56.620Z,1148
2017-06-29T10:48:56.270Z,1072
2017-06-29T10:49:56.597Z,1524
2017-06-29T10:50:56.630Z,2288
2017-06-29T10:51:56.612Z,2824
2017-06-29T10:52:56.636Z,2964
2017-06-29T10:53:56.591Z,3168
2017-06-29T10:54:56.299Z,3788
2017-06-29T10:55:56.604Z,4600
2017-06-29T10:56:55.999Z,4476
2017-06-29T10:57:56.614Z,4036
2017-06-29T10:58:56.603Z,3468
2017-06-29T10:59:56.584Z,2872
2017-06-29T11:00:56.575Z,3048
2017-06-29T11:01:56.301Z,3312
2017-06-29T11:02:56.594Z,4040
2017-06-29T11:03:56.598Z,4628
2017-06-29T11:04:56.594Z,4344
2017-06-29T11:05:56.591Z,4140
2017-06-29T11:06:56.584Z,4620
2017-06-29T11:07:56.264Z,5160
2017-06-29T11:08:56.586Z,5464
2017-06-29T11:09:56.563Z,5360
2017-06-29T11:10:56.257Z,5512
2017-06-29T11:11:56.564Z,4748
2017-06-29T11:12:56.584Z,4348
2017-06-29T11:13:56.612Z,4712
2017-06-29T11:14:56.556Z,5480
2017-06-29T11:15:56.560Z,5140
2017-06-29T11:16:56.229Z,5204
2017-06-29T11:17:56.562Z,6312
2017-06-29T11:18:56.238Z,6148
2017-06-29T11:19:56.238Z,6764
2017-06-29T11:20:56.251Z,7340
2017-06-29T11:21:56.245Z,7460
2017-06-29T11:22:56.559Z,5476
2017-06-29T11:23:56.237Z,4336
2017-06-29T11:24:56.252Z,3712
2017-06-29T11:25:55.908Z,2980
2017-06-29T11:26:56.532Z,3400
2017-06-29T11:27:55.920Z,3772
2017-06-29T11:28:56.547Z,3460
2017-06-29T11:29:56.538Z,3248
2017-06-29T11:30:56.525Z,3564
2017-06-29T11:31:56.511Z,2864
2017-06-29T11:32:56.544Z,2932
2017-06-29T11:33:56.194Z,3348
2017-06-29T11:34:56.523Z,2432
2017-06-29T11:35:56.505Z,2240
2017-06-29T11:36:56.522Z,2912
2017-06-29T11:37:56.491Z,4904
2017-06-29T11:38:56.528Z,4780
2017-06-29T11:39:56.500Z,5520
2017-06-29T11:40:56.524Z,4836
2017-06-29T11:41:56.177Z,3652
2017-06-29T11:42:56.188Z,3312
2017-06-29T11:43:56.483Z,3532
2017-06-29T11:44:56.504Z,3704
2017-06-29T11:45:56.504Z,3180
2017-06-29T11:46:56.502Z,3432
2017-06-29T11:47:56.482Z,3260
2017-06-29T11:48:56.484Z,4200
2017-06-29T11:49:56.536Z,3748
2017-06-29T11:50:56.171Z,4456
2017-06-29T11:51:56.498Z,5112
2017-06-29T11:52:56.158Z,5500
2017-06-29T11:53:56.494Z,5896
2017-06-29T11:54:56.469Z,6756
2017-06-29T11:55:55.860Z,7412
2017-06-29T11:56:56.478Z,8204
2017-06-29T11:57:56.478Z,9248
2017-06-29T11:58:56.453Z,8932
2017-06-29T11:59:56.458Z,8704
2017-06-29T12:00:56.158Z,7880
2017-06-29T12:01:56.462Z,5908
2017-06-29T12:02:56.144Z,3780
2017-06-29T12:03:56.456Z,2636
2017-06-29T12:04:56.439Z,2780
2017-06-29T12:05:56.467Z,3616
2017-06-29T12:06:56.452Z,4612
2017-06-29T12:07:56.471Z,6104
2017-06-29T12:08:56.437Z,7324
2017-06-29T12:09:56.451Z,7304
2017-06-29T12:10:56.443Z,6840
2017-06-29T12:11:56.644Z,6412
2017-06-29T12:12:56.419Z,6360
2017-06-29T12:13:56.454Z,7160
2017-06-29T12:14:56.449Z,8384
2017-06-29T12:15:56.439Z,9832
2017-06-29T12:16:56.434Z,8948
2017-06-29T12:17:56.128Z,8196
2017-06-29T12:18:56.126Z,8620
2017-06-29T12:19:56.424Z,8500
2017-06-29T12:20:56.454Z,8036
2017-06-29T12:21:56.408Z,8468
2017-06-29T12:22:56.425Z,8016
2017-06-29T12:23:56.427Z,8668
2017-06-29T12:24:56.417Z,11692
2017-06-29T12:25:56.437Z,11648
2017-06-29T12:26:56.424Z,9448
2017-06-29T12:27:56.106Z,8228
2017-06-29T12:28:56.109Z,9532
2017-06-29T12:29:56.112Z,10560
2017-06-29T12:30:56.424Z,8588
2017-06-29T12:31:56.419Z,6312
2017-06-29T12:32:56.407Z,3568
2017-06-29T12:33:56.412Z,2668
2017-06-29T12:34:56.412Z,2448
2017-06-29T12:35:56.409Z,2996
2017-06-29T12:36:56.427Z,2836
2017-06-29T12:37:56.393Z,3696
2017-06-29T12:38:56.410Z,4060
2017-06-29T12:39:56.402Z,6136
2017-06-29T12:40:56.418Z,8492
2017-06-29T12:41:56.386Z,8748
2017-06-29T12:42:56.411Z,6496
2017-06-29T12:43:56.384Z,4524
2017-06-29T12:44:56.101Z,3144
2017-06-29T12:45:56.374Z,3864
2017-06-29T12:46:56.386Z,3296
2017-06-29T12:47:56.392Z,4888
2017-06-29T12:48:56.399Z,5676
2017-06-29T12:49:56.390Z,5752
2017-06-29T12:50:56.399Z,6264
2017-06-29T12:51:56.398Z,6540
2017-06-29T12:52:56.394Z,6052
2017-06-29T12:53:56.415Z,6024
2017-06-29T12:54:56.395Z,4772
2017-06-29T12:55:56.374Z,3836
2017-06-29T12:56:55.785Z,3760
2017-06-29T12:57:56.375Z,3860
2017-06-29T12:58:56.399Z,3312
2017-06-29T12:59:56.369Z,3240
2017-06-29T13:00:56.698Z,2836
2017-06-29T13:01:56.373Z,2844
2017-06-29T13:02:55.752Z,2076
2017-06-29T13:03:56.380Z,1860
2017-06-29T13:04:56.396Z,1876
2017-06-29T13:05:56.377Z,1972
2017-06-29T13:06:56.052Z,1952
2017-06-29T13:07:56.372Z,1928
2017-06-29T13:08:56.051Z,2348
2017-06-29T13:09:56.071Z,2736
2017-06-29T13:10:56.063Z,2760
2017-06-29T13:11:56.056Z,2232
2017-06-29T13:12:56.357Z,2448
2017-06-29T13:13:56.375Z,3312
2017-06-29T13:14:56.045Z,3984
2017-06-29T13:15:56.347Z,6040
2017-06-29T13:16:56.051Z,7064
2017-06-29T13:17:56.326Z,7796
2017-06-29T13:18:56.351Z,8572
2017-06-29T13:19:56.338Z,8812
2017-06-29T13:20:56.364Z,8140
2017-06-29T13:21:56.357Z,6924
2017-06-29T13:22:56.340Z,6100
2017-06-29T13:23:56.026Z,5584
2017-06-29T13:24:56.027Z,5624
2017-06-29T13:25:56.038Z,6096
2017-06-29T13:26:56.023Z,5836
2017-06-29T13:27:56.034Z,4840
2017-06-29T13:28:56.320Z,4592
2017-06-29T13:29:56.345Z,4584
2017-06-29T13:30:56.330Z,4644
2017-06-29T13:31:56.029Z,4992
2017-06-29T13:32:55.999Z,5796